sensor_id;sensor_type;location;lat;lon;timestamp;temperature;humidity
20158;DHT22;10239;56.820;24.416;2023-06-14T00:01:50;12.50;99.90
20158;DHT22;10239;56.820;24.416;2023-06-14T00:04:18;12.50;99.90
20158;DHT22;10239;56.820;24.416;2023-06-14T00:06:48;12.50;99.90
20158;DHT22;10239;56.820;24.416;2023-06-14T00:09:18;12.50;99.90
20158;DHT22;10239;56.820;24.416;2023-06-14T00:11:46;12.50;99.90
20158;DHT22;10239;56.820;24.416;2023-06-14T00:14:13;12.40;99.90
20158;DHT22;10239;56.820;24.416;2023-06-14T00:16:41;12.50;99.90
20158;DHT22;10239;56.820;24.416;2023-06-14T00:19:10;12.50;99.90
20158;DHT22;10239;56.820;24.416;2023-06-14T00:21:38;12.40;99.90
20158;DHT22;10239;56.820;24.416;2023-06-14T00:24:07;12.30;99.90
20158;DHT22;10239;56.820;24.416;2023-06-14T00:26:34;12.20;99.90
20158;DHT22;10239;56.820;24.416;2023-06-14T00:29:02;12.10;99.90
20158;DHT22;10239;56.820;24.416;2023-06-14T00:31:30;12.20;99.90
20158;DHT22;10239;56.820;24.416;2023-06-14T00:33:58;12.10;99.90
20158;DHT22;10239;56.820;24.416;2023-06-14T00:36:25;12.20;99.90
20158;DHT22;10239;56.820;24.416;2023-06-14T00:38:53;12.20;99.90
20158;DHT22;10239;56.820;24.416;2023-06-14T00:41:21;12.20;99.90
20158;DHT22;10239;56.820;24.416;2023-06-14T00:43:50;12.20;99.90
20158;DHT22;10239;56.820;24.416;2023-06-14T00:46:18;12.20;99.90
20158;DHT22;10239;56.820;24.416;2023-06-14T00:48:47;12.00;99.90
20158;DHT22;10239;56.820;24.416;2023-06-14T00:51:16;11.60;99.90
20158;DHT22;10239;56.820;24.416;2023-06-14T00:53:44;11.70;99.90
20158;DHT22;10239;56.820;24.416;2023-06-14T00:56:14;11.80;99.90
20158;DHT22;10239;56.820;24.416;2023-06-14T00:58:42;11.80;99.90
20158;DHT22;10239;56.820;24.416;2023-06-14T01:01:11;11.80;99.90
20158;DHT22;10239;56.820;24.416;2023-06-14T01:03:38;11.80;99.90
20158;DHT22;10239;56.820;24.416;2023-06-14T01:11:41;11.80;99.90
20158;DHT22;10239;56.820;24.416;2023-06-14T01:14:12;11.90;99.90
20158;DHT22;10239;56.820;24.416;2023-06-14T01:16:41;11.90;99.90
20158;DHT22;10239;56.820;24.416;2023-06-14T01:19:12;12.00;99.90
20158;DHT22;10239;56.820;24.416;2023-06-14T01:21:41;11.90;99.90
20158;DHT22;10239;56.820;24.416;2023-06-14T01:24:09;11.90;99.90
20158;DHT22;10239;56.820;24.416;2023-06-14T01:26:38;11.90;99.90
20158;DHT22;10239;56.820;24.416;2023-06-14T01:29:14;11.80;99.90
20158;DHT22;10239;56.820;24.416;2023-06-14T01:31:45;11.80;99.90
20158;DHT22;10239;56.820;24.416;2023-06-14T01:34:13;11.80;99.90
20158;DHT22;10239;56.820;24.416;2023-06-14T01:36:43;11.80;99.90
20158;DHT22;10239;56.820;24.416;2023-06-14T01:39:14;11.80;99.90
20158;DHT22;10239;56.820;24.416;2023-06-14T01:41:43;11.90;99.90
20158;DHT22;10239;56.820;24.416;2023-06-14T01:44:13;11.90;99.90
20158;DHT22;10239;56.820;24.416;2023-06-14T01:46:42;11.90;99.90
20158;DHT22;10239;56.820;24.416;2023-06-14T01:49:11;11.80;99.90
20158;DHT22;10239;56.820;24.416;2023-06-14T01:51:38;11.70;99.90
20158;DHT22;10239;56.820;24.416;2023-06-14T01:54:06;11.80;99.90
20158;DHT22;10239;56.820;24.416;2023-06-14T01:56:34;11.80;99.90
20158;DHT22;10239;56.820;24.416;2023-06-14T01:59:01;11.90;99.90
20158;DHT22;10239;56.820;24.416;2023-06-14T02:01:29;11.90;99.90
20158;DHT22;10239;56.820;24.416;2023-06-14T02:03:58;11.80;99.90
20158;DHT22;10239;56.820;24.416;2023-06-14T02:06:26;11.80;99.90
20158;DHT22;10239;56.820;24.416;2023-06-14T02:08:55;11.90;99.90
20158;DHT22;10239;56.820;24.416;2023-06-14T02:11:22;12.00;99.90
20158;DHT22;10239;56.820;24.416;2023-06-14T02:13:50;12.00;99.90
20158;DHT22;10239;56.820;24.416;2023-06-14T02:16:18;12.10;99.90
20158;DHT22;10239;56.820;24.416;2023-06-14T02:18:47;12.20;99.90
20158;DHT22;10239;56.820;24.416;2023-06-14T02:21:16;12.10;99.90
20158;DHT22;10239;56.820;24.416;2023-06-14T02:23:45;12.20;99.90
20158;DHT22;10239;56.820;24.416;2023-06-14T02:26:13;12.20;99.90
20158;DHT22;10239;56.820;24.416;2023-06-14T02:28:41;12.20;99.90
20158;DHT22;10239;56.820;24.416;2023-06-14T02:31:08;12.40;99.90
20158;DHT22;10239;56.820;24.416;2023-06-14T02:33:36;12.50;99.90
20158;DHT22;10239;56.820;24.416;2023-06-14T02:36:03;12.50;99.90
20158;DHT22;10239;56.820;24.416;2023-06-14T02:38:34;12.50;99.90
20158;DHT22;10239;56.820;24.416;2023-06-14T02:41:02;12.40;99.90
20158;DHT22;10239;56.820;24.416;2023-06-14T02:43:29;12.50;99.90
20158;DHT22;10239;56.820;24.416;2023-06-14T02:45:58;12.60;99.90
20158;DHT22;10239;56.820;24.416;2023-06-14T02:48:25;12.70;99.90
20158;DHT22;10239;56.820;24.416;2023-06-14T02:50:53;12.80;99.90
20158;DHT22;10239;56.820;24.416;2023-06-14T02:53:21;12.90;99.90
20158;DHT22;10239;56.820;24.416;2023-06-14T02:55:49;12.90;99.90
20158;DHT22;10239;56.820;24.416;2023-06-14T02:58:17;13.00;99.90
20158;DHT22;10239;56.820;24.416;2023-06-14T03:00:45;13.10;99.90
20158;DHT22;10239;56.820;24.416;2023-06-14T03:03:13;13.20;99.90
20158;DHT22;10239;56.820;24.416;2023-06-14T03:05:50;13.30;99.90
20158;DHT22;10239;56.820;24.416;2023-06-14T03:08:22;13.40;99.90
20158;DHT22;10239;56.820;24.416;2023-06-14T03:10:56;13.50;99.90
20158;DHT22;10239;56.820;24.416;2023-06-14T03:13:24;13.60;99.90
20158;DHT22;10239;56.820;24.416;2023-06-14T03:15:52;13.80;99.90
20158;DHT22;10239;56.820;24.416;2023-06-14T03:18:21;14.00;99.90
20158;DHT22;10239;56.820;24.416;2023-06-14T03:20:54;14.10;99.90
20158;DHT22;10239;56.820;24.416;2023-06-14T03:23:25;14.20;99.90
20158;DHT22;10239;56.820;24.416;2023-06-14T03:25:53;14.30;99.90
20158;DHT22;10239;56.820;24.416;2023-06-14T03:28:21;14.50;99.90
20158;DHT22;10239;56.820;24.416;2023-06-14T03:30:49;14.60;99.90
20158;DHT22;10239;56.820;24.416;2023-06-14T03:33:18;14.70;99.90
20158;DHT22;10239;56.820;24.416;2023-06-14T03:35:45;14.90;99.90
20158;DHT22;10239;56.820;24.416;2023-06-14T03:38:12;15.10;99.90
20158;DHT22;10239;56.820;24.416;2023-06-14T03:40:40;15.30;99.90
20158;DHT22;10239;56.820;24.416;2023-06-14T03:43:08;15.40;99.90
20158;DHT22;10239;56.820;24.416;2023-06-14T03:45:35;15.70;99.90
20158;DHT22;10239;56.820;24.416;2023-06-14T03:48:04;15.90;99.90
20158;DHT22;10239;56.820;24.416;2023-06-14T03:50:34;16.00;99.90
20158;DHT22;10239;56.820;24.416;2023-06-14T03:53:06;16.00;99.90
20158;DHT22;10239;56.820;24.416;2023-06-14T03:55:35;16.10;99.90
20158;DHT22;10239;56.820;24.416;2023-06-14T03:58:05;16.30;99.90
20158;DHT22;10239;56.820;24.416;2023-06-14T04:00:35;16.50;99.90
20158;DHT22;10239;56.820;24.416;2023-06-14T04:03:03;16.60;99.90
20158;DHT22;10239;56.820;24.416;2023-06-14T04:05:33;16.70;99.90
20158;DHT22;10239;56.820;24.416;2023-06-14T04:08:01;16.80;99.90
20158;DHT22;10239;56.820;24.416;2023-06-14T04:10:31;16.90;99.90
20158;DHT22;10239;56.820;24.416;2023-06-14T04:12:58;16.90;99.90
20158;DHT22;10239;56.820;24.416;2023-06-14T04:15:26;17.00;99.90
20158;DHT22;10239;56.820;24.416;2023-06-14T04:17:56;17.10;99.90
20158;DHT22;10239;56.820;24.416;2023-06-14T04:20:25;17.20;99.90
20158;DHT22;10239;56.820;24.416;2023-06-14T04:22:53;17.20;99.90
20158;DHT22;10239;56.820;24.416;2023-06-14T04:25:23;17.40;99.90
20158;DHT22;10239;56.820;24.416;2023-06-14T04:27:52;17.60;99.90
20158;DHT22;10239;56.820;24.416;2023-06-14T04:30:21;17.90;99.90
20158;DHT22;10239;56.820;24.416;2023-06-14T04:32:54;18.00;99.90
20158;DHT22;10239;56.820;24.416;2023-06-14T04:35:23;18.40;99.90
20158;DHT22;10239;56.820;24.416;2023-06-14T04:37:55;18.60;99.90
20158;DHT22;10239;56.820;24.416;2023-06-14T04:40:22;18.80;99.90
20158;DHT22;10239;56.820;24.416;2023-06-14T04:42:50;18.90;99.90
20158;DHT22;10239;56.820;24.416;2023-06-14T04:45:19;19.20;99.90
20158;DHT22;10239;56.820;24.416;2023-06-14T04:47:51;19.90;99.90
20158;DHT22;10239;56.820;24.416;2023-06-14T04:50:27;20.60;99.90
20158;DHT22;10239;56.820;24.416;2023-06-14T04:52:57;21.60;99.90
20158;DHT22;10239;56.820;24.416;2023-06-14T04:55:27;22.00;99.90
20158;DHT22;10239;56.820;24.416;2023-06-14T04:57:56;22.30;99.90
20158;DHT22;10239;56.820;24.416;2023-06-14T05:00:23;22.60;99.90
20158;DHT22;10239;56.820;24.416;2023-06-14T05:03:02;22.30;99.90
20158;DHT22;10239;56.820;24.416;2023-06-14T05:05:34;22.50;99.90
20158;DHT22;10239;56.820;24.416;2023-06-14T05:08:02;22.80;99.90
20158;DHT22;10239;56.820;24.416;2023-06-14T05:10:30;23.50;99.90
20158;DHT22;10239;56.820;24.416;2023-06-14T05:13:01;24.60;99.90
20158;DHT22;10239;56.820;24.416;2023-06-14T05:15:29;25.50;99.90
20158;DHT22;10239;56.820;24.416;2023-06-14T05:17:57;26.10;99.90
20158;DHT22;10239;56.820;24.416;2023-06-14T05:20:25;27.40;99.90
20158;DHT22;10239;56.820;24.416;2023-06-14T05:22:54;28.30;97.10
20158;DHT22;10239;56.820;24.416;2023-06-14T05:25:22;29.00;94.50
20158;DHT22;10239;56.820;24.416;2023-06-14T05:27:49;29.40;92.80
20158;DHT22;10239;56.820;24.416;2023-06-14T05:30:17;29.20;92.50
20158;DHT22;10239;56.820;24.416;2023-06-14T05:32:45;29.90;90.10
20158;DHT22;10239;56.820;24.416;2023-06-14T05:35:13;30.50;88.10
20158;DHT22;10239;56.820;24.416;2023-06-14T05:37:42;30.90;86.80
20158;DHT22;10239;56.820;24.416;2023-06-14T05:40:10;31.90;83.70
20158;DHT22;10239;56.820;24.416;2023-06-14T05:42:38;32.20;79.20
20158;DHT22;10239;56.820;24.416;2023-06-14T05:45:06;32.30;76.90
20158;DHT22;10239;56.820;24.416;2023-06-14T05:47:34;32.20;77.80
20158;DHT22;10239;56.820;24.416;2023-06-14T05:50:02;32.80;74.00
20158;DHT22;10239;56.820;24.416;2023-06-14T05:52:30;32.70;71.10
20158;DHT22;10239;56.820;24.416;2023-06-14T05:54:59;33.00;71.10
20158;DHT22;10239;56.820;24.416;2023-06-14T05:57:27;33.10;69.80
20158;DHT22;10239;56.820;24.416;2023-06-14T05:59:55;33.70;65.10
20158;DHT22;10239;56.820;24.416;2023-06-14T06:02:22;33.40;65.10
20158;DHT22;10239;56.820;24.416;2023-06-14T06:04:50;33.60;63.10
20158;DHT22;10239;56.820;24.416;2023-06-14T06:07:18;33.70;62.30
20158;DHT22;10239;56.820;24.416;2023-06-14T06:09:47;33.50;60.50
20158;DHT22;10239;56.820;24.416;2023-06-14T06:12:15;33.20;61.00
20158;DHT22;10239;56.820;24.416;2023-06-14T06:14:43;33.50;61.60
20158;DHT22;10239;56.820;24.416;2023-06-14T06:17:11;33.90;59.30
20158;DHT22;10239;56.820;24.416;2023-06-14T06:19:38;33.60;59.40
20158;DHT22;10239;56.820;24.416;2023-06-14T06:22:06;33.80;59.40
20158;DHT22;10239;56.820;24.416;2023-06-14T06:24:33;34.20;57.90
20158;DHT22;10239;56.820;24.416;2023-06-14T06:27:01;34.40;58.60
20158;DHT22;10239;56.820;24.416;2023-06-14T06:29:29;34.90;53.80
20158;DHT22;10239;56.820;24.416;2023-06-14T06:31:57;34.00;55.00
20158;DHT22;10239;56.820;24.416;2023-06-14T06:34:24;34.30;56.30
20158;DHT22;10239;56.820;24.416;2023-06-14T06:36:52;34.60;54.10
20158;DHT22;10239;56.820;24.416;2023-06-14T06:39:19;34.20;55.80
20158;DHT22;10239;56.820;24.416;2023-06-14T06:41:47;34.30;54.70
20158;DHT22;10239;56.820;24.416;2023-06-14T06:44:25;34.00;55.60
20158;DHT22;10239;56.820;24.416;2023-06-14T06:46:55;34.90;53.80
20158;DHT22;10239;56.820;24.416;2023-06-14T06:49:22;34.90;54.00
20158;DHT22;10239;56.820;24.416;2023-06-14T06:52:06;34.60;52.70
20158;DHT22;10239;56.820;24.416;2023-06-14T06:54:34;34.70;55.00
20158;DHT22;10239;56.820;24.416;2023-06-14T06:57:02;34.70;55.70
20158;DHT22;10239;56.820;24.416;2023-06-14T06:59:29;35.00;55.40
20158;DHT22;10239;56.820;24.416;2023-06-14T07:01:57;35.00;52.90
20158;DHT22;10239;56.820;24.416;2023-06-14T07:04:25;34.70;52.50
20158;DHT22;10239;56.820;24.416;2023-06-14T07:06:52;35.00;53.60
20158;DHT22;10239;56.820;24.416;2023-06-14T07:09:20;35.40;52.60
20158;DHT22;10239;56.820;24.416;2023-06-14T07:11:47;35.90;52.40
20158;DHT22;10239;56.820;24.416;2023-06-14T07:14:15;35.60;51.50
20158;DHT22;10239;56.820;24.416;2023-06-14T07:16:43;36.20;50.30
20158;DHT22;10239;56.820;24.416;2023-06-14T07:19:11;36.50;49.10
20158;DHT22;10239;56.820;24.416;2023-06-14T07:21:38;35.40;49.20
20158;DHT22;10239;56.820;24.416;2023-06-14T07:24:06;35.50;50.00
20158;DHT22;10239;56.820;24.416;2023-06-14T07:26:35;35.20;48.20
20158;DHT22;10239;56.820;24.416;2023-06-14T07:29:02;35.90;47.10
20158;DHT22;10239;56.820;24.416;2023-06-14T07:31:30;35.70;50.20
20158;DHT22;10239;56.820;24.416;2023-06-14T07:33:58;36.30;46.40
20158;DHT22;10239;56.820;24.416;2023-06-14T07:36:26;35.60;49.60
20158;DHT22;10239;56.820;24.416;2023-06-14T07:38:54;36.20;45.70
20158;DHT22;10239;56.820;24.416;2023-06-14T07:41:21;34.80;46.90
20158;DHT22;10239;56.820;24.416;2023-06-14T07:43:49;35.30;46.90
20158;DHT22;10239;56.820;24.416;2023-06-14T07:46:32;34.70;47.30
20158;DHT22;10239;56.820;24.416;2023-06-14T07:49:02;34.70;46.90
20158;DHT22;10239;56.820;24.416;2023-06-14T07:51:30;35.20;45.70
20158;DHT22;10239;56.820;24.416;2023-06-14T07:53:59;35.80;46.30
20158;DHT22;10239;56.820;24.416;2023-06-14T07:56:28;35.90;46.10
20158;DHT22;10239;56.820;24.416;2023-06-14T07:58:55;35.90;45.30
20158;DHT22;10239;56.820;24.416;2023-06-14T08:01:23;36.50;42.70
20158;DHT22;10239;56.820;24.416;2023-06-14T08:03:52;35.90;43.80
20158;DHT22;10239;56.820;24.416;2023-06-14T08:06:20;35.40;45.20
20158;DHT22;10239;56.820;24.416;2023-06-14T08:08:48;35.20;44.30
20158;DHT22;10239;56.820;24.416;2023-06-14T08:11:15;35.50;44.60
20158;DHT22;10239;56.820;24.416;2023-06-14T08:13:43;35.80;44.50
20158;DHT22;10239;56.820;24.416;2023-06-14T08:16:11;35.40;44.90
20158;DHT22;10239;56.820;24.416;2023-06-14T08:18:38;35.00;44.50
20158;DHT22;10239;56.820;24.416;2023-06-14T08:21:06;35.30;45.50
20158;DHT22;10239;56.820;24.416;2023-06-14T08:23:34;35.90;45.60
20158;DHT22;10239;56.820;24.416;2023-06-14T08:26:04;35.80;44.40
20158;DHT22;10239;56.820;24.416;2023-06-14T08:28:32;35.50;45.70
20158;DHT22;10239;56.820;24.416;2023-06-14T08:30:59;34.80;44.40
20158;DHT22;10239;56.820;24.416;2023-06-14T08:33:27;35.30;44.40
20158;DHT22;10239;56.820;24.416;2023-06-14T08:35:55;35.00;44.00
20158;DHT22;10239;56.820;24.416;2023-06-14T08:38:23;34.70;45.50
20158;DHT22;10239;56.820;24.416;2023-06-14T08:40:51;35.10;44.70
20158;DHT22;10239;56.820;24.416;2023-06-14T08:43:20;34.30;45.10
20158;DHT22;10239;56.820;24.416;2023-06-14T08:45:48;34.60;44.90
20158;DHT22;10239;56.820;24.416;2023-06-14T08:48:23;34.80;44.80
20158;DHT22;10239;56.820;24.416;2023-06-14T08:50:56;34.90;45.40
20158;DHT22;10239;56.820;24.416;2023-06-14T08:53:32;35.70;43.50
20158;DHT22;10239;56.820;24.416;2023-06-14T08:56:05;35.60;43.60
20158;DHT22;10239;56.820;24.416;2023-06-14T08:58:33;35.90;45.40
20158;DHT22;10239;56.820;24.416;2023-06-14T09:01:01;36.00;43.20
20158;DHT22;10239;56.820;24.416;2023-06-14T09:03:29;36.00;42.50
20158;DHT22;10239;56.820;24.416;2023-06-14T09:05:58;35.90;44.10
20158;DHT22;10239;56.820;24.416;2023-06-14T09:08:27;36.00;42.90
20158;DHT22;10239;56.820;24.416;2023-06-14T09:10:57;36.20;44.00
20158;DHT22;10239;56.820;24.416;2023-06-14T09:13:26;35.60;44.00
20158;DHT22;10239;56.820;24.416;2023-06-14T09:15:57;35.40;42.40
20158;DHT22;10239;56.820;24.416;2023-06-14T09:18:42;35.10;44.20
20158;DHT22;10239;56.820;24.416;2023-06-14T09:21:16;35.60;44.70
20158;DHT22;10239;56.820;24.416;2023-06-14T09:23:46;35.60;44.40
20158;DHT22;10239;56.820;24.416;2023-06-14T09:26:16;35.90;43.40
20158;DHT22;10239;56.820;24.416;2023-06-14T09:31:21;34.70;43.60
20158;DHT22;10239;56.820;24.416;2023-06-14T09:33:53;34.50;44.70
20158;DHT22;10239;56.820;24.416;2023-06-14T09:36:23;34.40;44.90
20158;DHT22;10239;56.820;24.416;2023-06-14T09:39:04;35.80;46.60
20158;DHT22;10239;56.820;24.416;2023-06-14T09:41:37;36.70;43.40
20158;DHT22;10239;56.820;24.416;2023-06-14T09:44:09;36.50;43.40
20158;DHT22;10239;56.820;24.416;2023-06-14T09:46:46;36.00;42.20
20158;DHT22;10239;56.820;24.416;2023-06-14T09:49:14;36.00;44.30
20158;DHT22;10239;56.820;24.416;2023-06-14T09:51:43;35.60;43.20
20158;DHT22;10239;56.820;24.416;2023-06-14T09:54:20;36.10;43.00
20158;DHT22;10239;56.820;24.416;2023-06-14T09:56:51;36.50;42.50
20158;DHT22;10239;56.820;24.416;2023-06-14T09:59:26;35.50;43.80
20158;DHT22;10239;56.820;24.416;2023-06-14T10:01:58;35.10;44.30
20158;DHT22;10239;56.820;24.416;2023-06-14T10:04:29;34.90;44.30
20158;DHT22;10239;56.820;24.416;2023-06-14T10:06:58;34.70;44.40
20158;DHT22;10239;56.820;24.416;2023-06-14T10:09:28;34.10;45.60
20158;DHT22;10239;56.820;24.416;2023-06-14T10:11:59;34.20;44.50
20158;DHT22;10239;56.820;24.416;2023-06-14T10:14:28;33.90;45.40
20158;DHT22;10239;56.820;24.416;2023-06-14T10:19:42;34.80;43.40
20158;DHT22;10239;56.820;24.416;2023-06-14T10:22:18;34.60;43.00
20158;DHT22;10239;56.820;24.416;2023-06-14T10:24:48;34.00;43.80
20158;DHT22;10239;56.820;24.416;2023-06-14T10:27:17;34.30;45.30
20158;DHT22;10239;56.820;24.416;2023-06-14T10:32:29;33.90;46.30
20158;DHT22;10239;56.820;24.416;2023-06-14T10:35:01;34.40;44.60
20158;DHT22;10239;56.820;24.416;2023-06-14T10:37:29;34.40;45.50
20158;DHT22;10239;56.820;24.416;2023-06-14T10:39:57;34.40;45.80
20158;DHT22;10239;56.820;24.416;2023-06-14T10:42:31;34.30;45.40
20158;DHT22;10239;56.820;24.416;2023-06-14T10:45:00;34.60;45.20
20158;DHT22;10239;56.820;24.416;2023-06-14T10:47:33;34.00;44.50
20158;DHT22;10239;56.820;24.416;2023-06-14T10:50:08;34.00;44.80
20158;DHT22;10239;56.820;24.416;2023-06-14T10:52:41;33.90;45.00
20158;DHT22;10239;56.820;24.416;2023-06-14T10:55:17;33.80;44.30
20158;DHT22;10239;56.820;24.416;2023-06-14T10:57:49;33.40;44.50
20158;DHT22;10239;56.820;24.416;2023-06-14T11:00:21;33.80;44.10
20158;DHT22;10239;56.820;24.416;2023-06-14T11:08:37;33.50;45.30
20158;DHT22;10239;56.820;24.416;2023-06-14T11:11:07;33.00;45.20
20158;DHT22;10239;56.820;24.416;2023-06-14T11:13:41;32.40;45.10
20158;DHT22;10239;56.820;24.416;2023-06-14T11:16:16;32.20;43.60
20158;DHT22;10239;56.820;24.416;2023-06-14T11:18:46;32.00;45.40
20158;DHT22;10239;56.820;24.416;2023-06-14T11:21:18;32.10;46.70
20158;DHT22;10239;56.820;24.416;2023-06-14T11:23:50;32.50;46.40
20158;DHT22;10239;56.820;24.416;2023-06-14T11:28:56;31.10;46.10
20158;DHT22;10239;56.820;24.416;2023-06-14T11:31:25;30.60;45.80
20158;DHT22;10239;56.820;24.416;2023-06-14T11:34:00;31.30;46.00
20158;DHT22;10239;56.820;24.416;2023-06-14T11:36:30;30.80;46.30
20158;DHT22;10239;56.820;24.416;2023-06-14T11:39:03;30.90;47.80
20158;DHT22;10239;56.820;24.416;2023-06-14T11:41:37;31.00;46.20
20158;DHT22;10239;56.820;24.416;2023-06-14T11:44:08;30.80;47.80
20158;DHT22;10239;56.820;24.416;2023-06-14T11:46:40;31.00;47.90
20158;DHT22;10239;56.820;24.416;2023-06-14T11:49:08;31.10;47.00
20158;DHT22;10239;56.820;24.416;2023-06-14T11:51:39;31.40;47.60
20158;DHT22;10239;56.820;24.416;2023-06-14T11:54:10;31.70;49.00
20158;DHT22;10239;56.820;24.416;2023-06-14T11:56:38;31.90;46.10
20158;DHT22;10239;56.820;24.416;2023-06-14T11:59:06;32.10;47.40
20158;DHT22;10239;56.820;24.416;2023-06-14T12:01:36;32.00;44.60
20158;DHT22;10239;56.820;24.416;2023-06-14T12:04:06;31.60;47.10
20158;DHT22;10239;56.820;24.416;2023-06-14T12:06:34;31.30;45.90
20158;DHT22;10239;56.820;24.416;2023-06-14T12:09:04;31.20;47.20
20158;DHT22;10239;56.820;24.416;2023-06-14T12:11:37;31.10;48.00
20158;DHT22;10239;56.820;24.416;2023-06-14T12:14:05;30.70;48.80
20158;DHT22;10239;56.820;24.416;2023-06-14T12:16:34;30.60;49.50
20158;DHT22;10239;56.820;24.416;2023-06-14T12:19:14;30.90;47.80
20158;DHT22;10239;56.820;24.416;2023-06-14T12:21:43;30.70;46.80
20158;DHT22;10239;56.820;24.416;2023-06-14T12:24:14;30.80;46.60
20158;DHT22;10239;56.820;24.416;2023-06-14T12:26:42;30.70;47.20
20158;DHT22;10239;56.820;24.416;2023-06-14T12:29:09;30.60;47.10
20158;DHT22;10239;56.820;24.416;2023-06-14T12:31:40;30.20;47.20
20158;DHT22;10239;56.820;24.416;2023-06-14T12:34:09;29.90;47.90
20158;DHT22;10239;56.820;24.416;2023-06-14T12:36:37;30.10;48.40
20158;DHT22;10239;56.820;24.416;2023-06-14T12:39:12;29.60;48.70
20158;DHT22;10239;56.820;24.416;2023-06-14T12:41:40;29.90;47.80
20158;DHT22;10239;56.820;24.416;2023-06-14T12:44:14;30.00;47.20
20158;DHT22;10239;56.820;24.416;2023-06-14T12:46:42;30.30;47.00
20158;DHT22;10239;56.820;24.416;2023-06-14T12:49:11;30.70;47.70
20158;DHT22;10239;56.820;24.416;2023-06-14T12:51:40;30.90;46.00
20158;DHT22;10239;56.820;24.416;2023-06-14T12:54:08;30.50;47.10
20158;DHT22;10239;56.820;24.416;2023-06-14T12:56:36;30.70;46.30
20158;DHT22;10239;56.820;24.416;2023-06-14T12:59:07;30.80;47.20
20158;DHT22;10239;56.820;24.416;2023-06-14T13:01:43;31.00;45.70
20158;DHT22;10239;56.820;24.416;2023-06-14T13:04:18;31.00;46.10
20158;DHT22;10239;56.820;24.416;2023-06-14T13:06:47;30.60;46.70
20158;DHT22;10239;56.820;24.416;2023-06-14T13:09:22;30.30;47.90
20158;DHT22;10239;56.820;24.416;2023-06-14T13:11:53;30.20;46.30
20158;DHT22;10239;56.820;24.416;2023-06-14T13:14:31;30.30;46.40
20158;DHT22;10239;56.820;24.416;2023-06-14T13:17:13;29.90;47.30
20158;DHT22;10239;56.820;24.416;2023-06-14T13:19:48;30.00;48.00
20158;DHT22;10239;56.820;24.416;2023-06-14T13:22:25;30.10;48.40
20158;DHT22;10239;56.820;24.416;2023-06-14T13:24:55;30.30;48.10
20158;DHT22;10239;56.820;24.416;2023-06-14T13:27:23;30.50;49.50
20158;DHT22;10239;56.820;24.416;2023-06-14T13:29:52;30.40;48.30
20158;DHT22;10239;56.820;24.416;2023-06-14T13:32:22;29.80;48.60
20158;DHT22;10239;56.820;24.416;2023-06-14T13:34:50;29.80;49.10
20158;DHT22;10239;56.820;24.416;2023-06-14T13:37:17;29.70;48.10
20158;DHT22;10239;56.820;24.416;2023-06-14T13:39:45;29.80;47.00
20158;DHT22;10239;56.820;24.416;2023-06-14T13:42:12;29.50;49.00
20158;DHT22;10239;56.820;24.416;2023-06-14T13:44:40;29.40;48.80
20158;DHT22;10239;56.820;24.416;2023-06-14T13:47:08;29.40;48.10
20158;DHT22;10239;56.820;24.416;2023-06-14T13:49:35;29.50;48.30
20158;DHT22;10239;56.820;24.416;2023-06-14T13:52:04;29.70;48.10
20158;DHT22;10239;56.820;24.416;2023-06-14T13:54:31;29.50;46.80
20158;DHT22;10239;56.820;24.416;2023-06-14T13:56:59;29.70;49.00
20158;DHT22;10239;56.820;24.416;2023-06-14T13:59:27;30.00;49.00
20158;DHT22;10239;56.820;24.416;2023-06-14T14:01:54;29.80;47.20
20158;DHT22;10239;56.820;24.416;2023-06-14T14:04:21;29.80;48.10
20158;DHT22;10239;56.820;24.416;2023-06-14T14:06:49;29.60;48.30
20158;DHT22;10239;56.820;24.416;2023-06-14T14:09:16;29.30;48.80
20158;DHT22;10239;56.820;24.416;2023-06-14T14:11:44;29.10;48.20
20158;DHT22;10239;56.820;24.416;2023-06-14T14:14:12;29.10;48.10
20158;DHT22;10239;56.820;24.416;2023-06-14T14:16:40;29.30;48.60
20158;DHT22;10239;56.820;24.416;2023-06-14T14:19:07;29.30;48.40
20158;DHT22;10239;56.820;24.416;2023-06-14T14:21:35;29.30;47.00
20158;DHT22;10239;56.820;24.416;2023-06-14T14:24:03;29.40;53.10
20158;DHT22;10239;56.820;24.416;2023-06-14T14:26:31;29.40;54.40
20158;DHT22;10239;56.820;24.416;2023-06-14T14:28:59;29.30;56.20
20158;DHT22;10239;56.820;24.416;2023-06-14T14:31:26;29.40;57.10
20158;DHT22;10239;56.820;24.416;2023-06-14T14:33:54;29.30;56.70
20158;DHT22;10239;56.820;24.416;2023-06-14T14:36:22;29.20;59.70
20158;DHT22;10239;56.820;24.416;2023-06-14T14:38:49;29.20;57.40
20158;DHT22;10239;56.820;24.416;2023-06-14T14:41:19;28.80;56.30
20158;DHT22;10239;56.820;24.416;2023-06-14T14:43:46;28.50;58.10
20158;DHT22;10239;56.820;24.416;2023-06-14T14:46:14;28.30;59.70
20158;DHT22;10239;56.820;24.416;2023-06-14T14:48:44;28.40;59.70
20158;DHT22;10239;56.820;24.416;2023-06-14T14:51:13;27.90;60.40
20158;DHT22;10239;56.820;24.416;2023-06-14T14:53:41;27.70;60.80
20158;DHT22;10239;56.820;24.416;2023-06-14T14:56:08;27.50;60.30
20158;DHT22;10239;56.820;24.416;2023-06-14T14:58:36;27.40;61.40
20158;DHT22;10239;56.820;24.416;2023-06-14T15:01:04;27.30;61.80
20158;DHT22;10239;56.820;24.416;2023-06-14T15:03:33;27.30;59.20
20158;DHT22;10239;56.820;24.416;2023-06-14T15:06:20;27.20;60.50
20158;DHT22;10239;56.820;24.416;2023-06-14T15:08:47;27.10;61.80
20158;DHT22;10239;56.820;24.416;2023-06-14T15:11:15;27.10;62.60
20158;DHT22;10239;56.820;24.416;2023-06-14T15:13:42;27.20;63.80
20158;DHT22;10239;56.820;24.416;2023-06-14T15:16:10;27.20;63.30
20158;DHT22;10239;56.820;24.416;2023-06-14T15:18:37;27.30;63.80
20158;DHT22;10239;56.820;24.416;2023-06-14T15:21:05;27.40;65.00
20158;DHT22;10239;56.820;24.416;2023-06-14T15:23:33;27.40;63.50
20158;DHT22;10239;56.820;24.416;2023-06-14T15:26:00;27.40;62.70
20158;DHT22;10239;56.820;24.416;2023-06-14T15:28:28;27.30;64.20
20158;DHT22;10239;56.820;24.416;2023-06-14T15:30:56;27.20;63.10
20158;DHT22;10239;56.820;24.416;2023-06-14T15:33:24;27.20;63.40
20158;DHT22;10239;56.820;24.416;2023-06-14T15:35:51;27.10;63.20
20158;DHT22;10239;56.820;24.416;2023-06-14T15:38:20;27.00;62.60
20158;DHT22;10239;56.820;24.416;2023-06-14T15:40:56;26.80;62.70
20158;DHT22;10239;56.820;24.416;2023-06-14T15:43:24;26.70;63.00
20158;DHT22;10239;56.820;24.416;2023-06-14T15:45:52;26.60;63.80
20158;DHT22;10239;56.820;24.416;2023-06-14T15:48:21;26.60;64.70
20158;DHT22;10239;56.820;24.416;2023-06-14T15:50:49;26.50;63.50